createdAt,value
2018-09-26T00:02:03.867Z,76.80
2018-09-26T00:04:31.731Z,77.56
2018-09-26T00:06:59.221Z,77.88
2018-09-26T00:09:27.225Z,77.97
2018-09-26T00:11:54.761Z,77.90
2018-09-26T00:14:22.244Z,78.07
2018-09-26T00:16:49.810Z,78.26
2018-09-26T00:19:17.267Z,78.52
2018-09-26T00:21:44.839Z,78.42
2018-09-26T00:24:12.497Z,78.32
2018-09-26T00:26:39.907Z,78.66
2018-09-26T00:29:07.371Z,79.29
2018-09-26T00:31:34.864Z,79.41
2018-09-26T00:34:02.373Z,79.43
2018-09-26T00:36:29.952Z,79.76
2018-09-26T00:38:57.427Z,79.71
2018-09-26T00:41:24.893Z,79.80
2018-09-26T00:43:52.297Z,80.63
2018-09-26T00:46:19.747Z,80.67
2018-09-26T00:48:47.153Z,80.70
2018-09-26T00:51:14.590Z,80.36
2018-09-26T00:53:42.031Z,80.44
2018-09-26T00:56:09.643Z,80.25
2018-09-26T00:58:37.097Z,80.26
2018-09-26T01:01:04.645Z,80.00
2018-09-26T01:03:32.016Z,79.75
2018-09-26T01:05:59.483Z,79.73
2018-09-26T01:08:27.017Z,79.61
2018-09-26T01:10:54.401Z,79.70
2018-09-26T01:13:21.767Z,79.83
2018-09-26T01:15:49.287Z,79.85
2018-09-26T01:18:16.879Z,80.02
2018-09-26T01:20:44.687Z,80.08
2018-09-26T01:23:12.590Z,80.25
2018-09-26T01:25:40.425Z,80.31
2018-09-26T01:28:07.873Z,80.06
2018-09-26T01:30:35.375Z,80.00
2018-09-26T01:33:02.884Z,80.11
2018-09-26T01:35:30.320Z,80.13
2018-09-26T01:37:57.760Z,80.09
2018-09-26T01:40:25.195Z,80.19
2018-09-26T01:42:52.583Z,80.34
2018-09-26T01:45:20.343Z,80.62
2018-09-26T01:47:47.711Z,80.78
2018-09-26T01:50:15.149Z,81.12
2018-09-26T01:52:42.557Z,81.14
2018-09-26T01:55:10.029Z,81.08
2018-09-26T01:57:37.449Z,81.14
2018-09-26T02:00:05.229Z,81.41
2018-09-26T02:02:32.859Z,81.45
2018-09-26T02:05:00.271Z,81.61
2018-09-26T02:07:27.787Z,81.88
2018-09-26T02:09:55.297Z,82.13
2018-09-26T02:12:22.745Z,82.30
2018-09-26T02:14:50.215Z,82.52
2018-09-26T02:17:17.683Z,82.40
2018-09-26T02:19:45.065Z,82.72
2018-09-26T02:22:12.579Z,82.90
2018-09-26T02:24:40.005Z,82.85
2018-09-26T02:27:07.669Z,82.77
2018-09-26T02:29:35.164Z,82.65
2018-09-26T02:32:02.751Z,82.81
2018-09-26T02:34:30.179Z,82.85
2018-09-26T02:36:57.705Z,83.07
2018-09-26T02:39:26.159Z,83.37
2018-09-26T02:41:53.609Z,83.37
2018-09-26T02:44:21.432Z,83.38
2018-09-26T02:46:49.283Z,83.42
2018-09-26T02:49:16.679Z,83.59
2018-09-26T02:51:44.188Z,83.47
2018-09-26T02:54:11.609Z,83.66
2018-09-26T02:56:39.169Z,83.70
2018-09-26T02:59:06.587Z,83.48
2018-09-26T03:01:34.003Z,83.70
2018-09-26T03:04:01.533Z,83.32
2018-09-26T03:06:28.960Z,83.55
2018-09-26T03:08:56.361Z,83.41
2018-09-26T03:11:23.893Z,83.25
2018-09-26T03:13:51.572Z,83.14
2018-09-26T03:16:19.067Z,83.36
2018-09-26T03:18:46.569Z,83.18
2018-09-26T03:21:14.077Z,83.22
2018-09-26T03:23:41.471Z,83.37
2018-09-26T03:26:09.000Z,83.40
2018-09-26T03:28:36.410Z,83.12
2018-09-26T03:31:03.957Z,83.03
2018-09-26T03:33:31.448Z,83.12
2018-09-26T03:35:58.998Z,82.88
2018-09-26T03:38:26.384Z,82.41
2018-09-26T03:40:53.904Z,82.34
2018-09-26T03:43:21.306Z,82.22
2018-09-26T03:45:48.876Z,82.36
2018-09-26T03:48:16.442Z,82.30
2018-09-26T03:50:43.986Z,82.25
2018-09-26T03:53:11.390Z,82.39
2018-09-26T03:55:38.932Z,82.41
2018-09-26T03:58:06.400Z,82.42
2018-09-26T04:00:33.812Z,82.26
2018-09-26T04:03:01.186Z,82.06
2018-09-26T04:05:28.630Z,82.39
2018-09-26T04:07:56.194Z,82.26
2018-09-26T04:10:23.746Z,82.48
2018-09-26T04:12:51.481Z,82.42
2018-09-26T04:15:18.792Z,82.29
2018-09-26T04:17:46.148Z,82.43
2018-09-26T04:20:13.686Z,82.24
2018-09-26T04:22:41.209Z,82.11
2018-09-26T04:25:08.654Z,81.85
2018-09-26T04:27:36.134Z,81.76
2018-09-26T04:30:04.026Z,81.78
2018-09-26T04:32:31.426Z,81.67
2018-09-26T04:34:58.822Z,81.21
2018-09-26T04:37:26.232Z,80.81
2018-09-26T04:39:53.696Z,80.71
2018-09-26T04:42:21.563Z,80.43
2018-09-26T04:44:49.002Z,79.89
2018-09-26T04:47:16.438Z,79.26
2018-09-26T04:49:43.851Z,79.11
2018-09-26T04:52:11.290Z,78.88
2018-09-26T04:54:38.714Z,79.22
2018-09-26T04:57:06.352Z,79.42
2018-09-26T04:59:33.930Z,79.58
2018-09-26T05:02:01.464Z,79.71
2018-09-26T05:04:28.972Z,79.46
2018-09-26T05:06:56.403Z,79.07
2018-09-26T05:09:23.934Z,79.04
2018-09-26T05:11:51.660Z,78.80
2018-09-26T05:14:19.098Z,78.85
2018-09-26T05:16:46.557Z,78.93
2018-09-26T05:19:14.146Z,78.81
2018-09-26T05:21:41.652Z,79.02
2018-09-26T05:24:09.166Z,78.88
2018-09-26T05:26:36.657Z,78.48
2018-09-26T05:29:04.087Z,77.97
2018-09-26T05:31:31.460Z,77.25
2018-09-26T05:33:58.886Z,77.53
2018-09-26T05:36:26.464Z,77.31
2018-09-26T05:38:54.162Z,77.21
2018-09-26T05:41:21.658Z,76.93
2018-09-26T05:43:49.170Z,76.95
2018-09-26T05:46:16.632Z,76.06
2018-09-26T05:48:44.485Z,75.68
2018-09-26T05:51:11.982Z,75.03
2018-09-26T05:53:39.485Z,74.62
2018-09-26T05:56:07.072Z,74.09
2018-09-26T05:58:34.516Z,73.43
2018-09-26T06:01:01.972Z,71.82
2018-09-26T06:03:29.374Z,70.76
2018-09-26T06:05:56.779Z,68.98
2018-09-26T06:08:24.183Z,67.84
2018-09-26T06:10:51.964Z,66.44
2018-09-26T06:13:19.310Z,64.76
2018-09-26T06:15:46.742Z,62.25
2018-09-26T06:18:14.318Z,58.65
2018-09-26T06:20:41.753Z,57.38
2018-09-26T06:23:09.125Z,56.34
2018-09-26T06:25:36.575Z,54.64
2018-09-26T06:28:03.998Z,53.38
2018-09-26T06:30:31.435Z,51.23
2018-09-26T06:32:58.829Z,51.02
2018-09-26T06:35:26.278Z,50.92
2018-09-26T06:37:53.649Z,51.97
2018-09-26T06:40:21.251Z,51.08
2018-09-26T06:42:49.385Z,50.64
2018-09-26T06:45:16.809Z,50.23
2018-09-26T06:47:44.230Z,48.89
2018-09-26T06:50:11.649Z,47.91
2018-09-26T06:52:39.050Z,46.18
2018-09-26T06:55:06.466Z,43.79
2018-09-26T06:57:33.878Z,40.64
2018-09-26T07:00:01.346Z,37.87
2018-09-26T07:02:28.771Z,36.80
2018-09-26T07:04:56.158Z,32.69
2018-09-26T07:07:23.603Z,31.26
2018-09-26T07:09:51.036Z,30.55
2018-09-26T07:12:18.514Z,28.79
2018-09-26T07:14:45.849Z,26.71
2018-09-26T07:17:13.623Z,25.48
2018-09-26T07:19:41.037Z,25.69
2018-09-26T07:22:08.519Z,24.86
2018-09-26T07:24:35.971Z,24.62
2018-09-26T07:27:03.510Z,24.10
2018-09-26T07:29:31.084Z,22.95
2018-09-26T07:31:58.578Z,20.93
2018-09-26T07:34:31.834Z,18.92
2018-09-26T07:36:59.627Z,15.67
2018-09-26T07:39:27.094Z,15.00
2018-09-26T07:41:54.557Z,14.25
2018-09-26T07:44:22.043Z,12.89
2018-09-26T07:46:49.682Z,13.99
2018-09-26T07:49:17.180Z,13.19
2018-09-26T07:51:44.662Z,13.06
2018-09-26T07:54:12.162Z,12.98
2018-09-26T07:56:39.631Z,13.26
2018-09-26T07:59:07.235Z,13.95
2018-09-26T08:01:34.888Z,13.72
2018-09-26T08:04:02.411Z,15.16
2018-09-26T08:06:29.928Z,15.25
2018-09-26T08:08:57.395Z,14.54
2018-09-26T08:11:24.890Z,14.35
2018-09-26T08:13:52.297Z,14.83
2018-09-26T08:16:19.752Z,15.18
2018-09-26T08:18:47.175Z,14.63
2018-09-26T08:21:14.712Z,14.54
2018-09-26T08:23:42.165Z,13.36
2018-09-26T08:26:09.590Z,13.60
2018-09-26T08:28:37.016Z,13.93
2018-09-26T08:31:04.458Z,13.77
2018-09-26T08:33:31.886Z,13.91
2018-09-26T08:35:59.415Z,13.49
2018-09-26T08:38:26.798Z,13.21
2018-09-26T08:40:54.326Z,12.99
2018-09-26T08:43:21.788Z,13.76
2018-09-26T08:45:49.222Z,14.43
2018-09-26T08:48:16.671Z,14.78
2018-09-26T08:50:44.161Z,14.79
2018-09-26T08:53:11.656Z,13.76
2018-09-26T08:55:39.072Z,13.32
2018-09-26T08:58:06.532Z,13.66
2018-09-26T09:00:35.910Z,13.77
2018-09-26T09:03:04.435Z,12.76
2018-09-26T09:05:31.942Z,13.27
2018-09-26T09:08:00.010Z,13.90
2018-09-26T09:10:27.571Z,14.69
2018-09-26T09:12:54.984Z,14.97
2018-09-26T09:15:22.513Z,15.95
2018-09-26T09:17:50.031Z,16.17
2018-09-26T09:20:17.474Z,18.86
2018-09-26T09:22:45.893Z,20.97
2018-09-26T09:25:13.364Z,23.05
2018-09-26T09:27:41.012Z,23.24
2018-09-26T09:30:08.414Z,24.83
2018-09-26T09:32:35.931Z,26.33
2018-09-26T09:35:03.530Z,26.91
2018-09-26T09:37:30.990Z,27.05
2018-09-26T09:39:58.447Z,26.69
2018-09-26T09:42:26.083Z,27.42
2018-09-26T09:44:53.546Z,27.76
2018-09-26T09:47:20.958Z,27.47
2018-09-26T09:49:48.442Z,27.34
2018-09-26T09:52:15.890Z,27.63
2018-09-26T09:54:43.286Z,27.91
2018-09-26T09:57:10.782Z,28.11
2018-09-26T09:59:38.226Z,27.71
2018-09-26T10:02:05.799Z,27.96
2018-09-26T10:04:33.234Z,28.38
2018-09-26T10:07:00.838Z,28.32
2018-09-26T10:09:28.386Z,28.82
2018-09-26T10:11:55.948Z,27.79
2018-09-26T10:14:23.360Z,28.58
2018-09-26T10:16:51.005Z,28.91
2018-09-26T10:19:18.462Z,29.33
2018-09-26T10:21:45.970Z,28.73
2018-09-26T10:24:13.461Z,28.52
2018-09-26T10:26:41.190Z,28.57
2018-09-26T10:29:08.713Z,29.12
2018-09-26T10:31:36.211Z,28.12
2018-09-26T10:34:03.826Z,29.00
2018-09-26T10:36:31.329Z,28.96
2018-09-26T10:38:58.760Z,28.96
2018-09-26T10:41:26.222Z,29.33
2018-09-26T10:43:53.694Z,29.12
2018-09-26T10:46:21.189Z,29.69
2018-09-26T10:48:48.662Z,30.01
2018-09-26T10:51:16.220Z,30.58
2018-09-26T10:53:43.626Z,29.39
2018-09-26T10:56:11.069Z,29.21
2018-09-26T10:58:38.446Z,29.22
2018-09-26T11:01:06.104Z,28.68
2018-09-26T11:03:33.565Z,29.01
2018-09-26T11:06:00.954Z,28.75
2018-09-26T11:08:28.410Z,28.92
2018-09-26T11:10:55.882Z,30.03
2018-09-26T11:13:23.306Z,29.30
2018-09-26T11:15:50.776Z,29.17
2018-09-26T11:18:18.330Z,29.00
2018-09-26T11:20:45.874Z,28.65
2018-09-26T11:23:13.279Z,29.41
2018-09-26T11:25:40.750Z,28.30
2018-09-26T11:28:08.209Z,27.81
2018-09-26T11:30:35.649Z,27.67
2018-09-26T11:33:03.085Z,27.86
2018-09-26T11:35:30.514Z,27.56
2018-09-26T11:37:57.925Z,27.79
2018-09-26T11:40:25.487Z,27.76
2018-09-26T11:42:52.885Z,27.50
2018-09-26T11:45:20.338Z,27.33
2018-09-26T11:47:47.778Z,28.34
2018-09-26T11:50:15.261Z,27.90
2018-09-26T11:52:42.674Z,27.03
2018-09-26T11:55:10.247Z,27.25
2018-09-26T11:57:37.722Z,27.48
2018-09-26T12:00:05.173Z,28.09
2018-09-26T12:02:32.994Z,26.73
2018-09-26T12:05:00.376Z,27.03
2018-09-26T12:07:27.790Z,27.51
2018-09-26T12:09:55.262Z,26.85
2018-09-26T12:12:23.345Z,26.71
2018-09-26T12:14:50.841Z,27.04
2018-09-26T12:17:18.293Z,26.53
2018-09-26T12:19:45.742Z,25.23
2018-09-26T12:22:13.186Z,25.10
2018-09-26T12:24:40.766Z,25.31
2018-09-26T12:27:08.169Z,25.18
2018-09-26T12:29:35.665Z,25.14
2018-09-26T12:32:03.133Z,24.75
2018-09-26T12:34:30.512Z,24.75
2018-09-26T12:36:58.013Z,24.84
2018-09-26T12:39:25.473Z,23.89
2018-09-26T12:41:52.887Z,23.90
2018-09-26T12:44:20.269Z,24.23
2018-09-26T12:46:48.583Z,24.88
2018-09-26T12:49:15.990Z,25.13
2018-09-26T12:51:43.557Z,25.42
2018-09-26T12:54:10.963Z,24.19
2018-09-26T12:56:38.397Z,23.38
2018-09-26T12:59:05.913Z,24.02
2018-09-26T13:01:33.477Z,23.66
2018-09-26T13:04:00.895Z,24.00
2018-09-26T13:06:28.394Z,24.80
2018-09-26T13:08:55.935Z,24.20
2018-09-26T13:11:23.473Z,24.53
2018-09-26T13:13:51.212Z,24.51
2018-09-26T13:16:18.719Z,23.32
2018-09-26T13:18:46.212Z,24.50
2018-09-26T13:21:13.749Z,23.20
2018-09-26T13:23:41.201Z,24.11
2018-09-26T13:26:08.815Z,24.19
2018-09-26T13:28:36.218Z,24.82
2018-09-26T13:31:03.915Z,24.03
2018-09-26T13:33:31.296Z,24.83
2018-09-26T13:35:58.729Z,24.60
2018-09-26T13:38:26.407Z,25.32
2018-09-26T13:40:53.761Z,25.19
2018-09-26T13:43:21.169Z,25.06
2018-09-26T13:45:48.983Z,25.19
2018-09-26T13:48:16.445Z,25.17
2018-09-26T13:50:43.909Z,25.30
2018-09-26T13:53:11.465Z,24.80
2018-09-26T13:55:38.897Z,25.11
2018-09-26T13:58:06.360Z,25.55
2018-09-26T14:00:34.005Z,25.56
2018-09-26T14:03:01.369Z,26.26
2018-09-26T14:05:28.839Z,26.10
2018-09-26T14:07:56.276Z,26.71
2018-09-26T14:10:23.715Z,26.71
2018-09-26T14:12:51.186Z,26.53
2018-09-26T14:15:18.790Z,26.12
2018-09-26T14:17:46.252Z,26.79
2018-09-26T14:20:13.868Z,27.56
2018-09-26T14:22:41.300Z,27.54
2018-09-26T14:25:08.731Z,26.75
2018-09-26T14:27:36.235Z,26.64
2018-09-26T14:30:03.904Z,26.72
2018-09-26T14:32:31.415Z,26.64
2018-09-26T14:34:58.863Z,26.94
2018-09-26T14:37:26.367Z,27.42
2018-09-26T14:39:53.949Z,27.49
2018-09-26T14:42:21.934Z,26.67
2018-09-26T14:44:49.518Z,27.33
2018-09-26T14:47:17.063Z,26.68
2018-09-26T14:49:44.518Z,27.08
2018-09-26T14:52:12.098Z,27.24
2018-09-26T14:54:39.606Z,26.76
2018-09-26T14:57:07.053Z,26.14
2018-09-26T14:59:34.535Z,26.04
2018-09-26T15:02:01.998Z,26.26
2018-09-26T15:04:29.485Z,26.17
2018-09-26T15:06:56.974Z,26.45
2018-09-26T15:09:24.506Z,26.39
2018-09-26T15:11:51.929Z,27.43
2018-09-26T15:14:19.427Z,27.21
2018-09-26T15:16:46.918Z,25.94
2018-09-26T15:19:14.357Z,25.66
2018-09-26T15:21:41.881Z,26.47
2018-09-26T15:24:09.367Z,26.63
2018-09-26T15:26:36.763Z,27.31
2018-09-26T15:29:04.228Z,28.18
2018-09-26T15:31:31.630Z,27.94
2018-09-26T15:33:59.025Z,27.70
2018-09-26T15:36:26.703Z,28.38
2018-09-26T15:38:54.287Z,28.63
2018-09-26T15:41:21.833Z,28.67
2018-09-26T15:43:49.291Z,29.87
2018-09-26T15:46:16.765Z,29.44
2018-09-26T15:48:44.241Z,30.25
2018-09-26T15:51:11.713Z,31.07
2018-09-26T15:53:39.149Z,31.51
2018-09-26T15:56:06.693Z,30.68
2018-09-26T15:58:34.095Z,30.57
2018-09-26T16:01:01.612Z,31.01
2018-09-26T16:03:29.085Z,30.86
2018-09-26T16:05:56.570Z,31.12
2018-09-26T16:08:24.147Z,31.46
2018-09-26T16:10:51.592Z,31.58
2018-09-26T16:13:18.988Z,29.33
2018-09-26T16:15:46.366Z,30.29
2018-09-26T16:18:13.777Z,30.87
2018-09-26T16:20:41.211Z,30.88
2018-09-26T16:23:08.681Z,31.44
2018-09-26T16:25:36.283Z,31.87
2018-09-26T16:28:03.716Z,32.23
2018-09-26T16:30:31.250Z,33.30
2018-09-26T16:32:58.705Z,33.90
2018-09-26T16:35:26.329Z,34.31
2018-09-26T16:37:53.735Z,34.78
2018-09-26T16:40:21.200Z,35.21
2018-09-26T16:42:48.690Z,35.34
2018-09-26T16:45:16.261Z,35.11
2018-09-26T16:47:43.566Z,35.15
2018-09-26T16:50:11.228Z,35.66
2018-09-26T16:52:38.643Z,36.13
2018-09-26T16:55:06.100Z,36.25
2018-09-26T16:57:33.563Z,36.91
2018-09-26T17:00:01.053Z,37.92
2018-09-26T17:02:28.546Z,38.34
2018-09-26T17:04:56.050Z,38.51
2018-09-26T17:07:23.604Z,39.06
2018-09-26T17:09:51.062Z,39.04
2018-09-26T17:12:18.541Z,39.06
2018-09-26T17:14:46.006Z,39.06
2018-09-26T17:17:13.428Z,39.02
2018-09-26T17:19:40.875Z,39.38
2018-09-26T17:22:08.353Z,39.85
2018-09-26T17:24:35.742Z,40.39
2018-09-26T17:27:03.223Z,40.42
2018-09-26T17:29:30.611Z,40.69
2018-09-26T17:31:58.060Z,41.04
2018-09-26T17:34:25.696Z,41.44
2018-09-26T17:36:53.441Z,41.68
2018-09-26T17:39:20.938Z,41.56
2018-09-26T17:41:48.413Z,42.20
2018-09-26T17:44:15.914Z,42.19
2018-09-26T17:46:43.401Z,42.40
2018-09-26T17:49:11.168Z,43.21
2018-09-26T17:51:38.747Z,44.51
2018-09-26T17:54:06.250Z,44.31
2018-09-26T17:56:33.753Z,44.25
2018-09-26T17:59:01.308Z,44.27
2018-09-26T18:01:28.979Z,44.13
2018-09-26T18:03:56.401Z,44.25
2018-09-26T18:06:23.875Z,44.40
2018-09-26T18:08:51.373Z,44.97
2018-09-26T18:11:18.885Z,44.87
2018-09-26T18:13:46.313Z,44.93
2018-09-26T18:16:13.991Z,45.18
2018-09-26T18:18:41.537Z,45.29
2018-09-26T18:21:08.991Z,45.62
2018-09-26T18:23:36.445Z,45.66
2018-09-26T18:26:04.064Z,46.36
2018-09-26T18:28:32.201Z,46.60
2018-09-26T18:31:01.130Z,46.87
2018-09-26T18:33:30.539Z,47.69
2018-09-26T18:35:58.840Z,47.75
2018-09-26T18:38:28.237Z,47.73
2018-09-26T18:40:55.872Z,47.95
2018-09-26T18:43:23.448Z,51.16
2018-09-26T18:45:51.202Z,50.18
2018-09-26T18:48:19.816Z,49.68
2018-09-26T18:50:48.456Z,49.38
2018-09-26T18:53:16.950Z,50.11
2018-09-26T18:55:44.575Z,51.02
2018-09-26T18:58:12.077Z,52.31
2018-09-26T19:00:39.591Z,52.93
2018-09-26T19:03:07.197Z,52.87
2018-09-26T19:05:34.712Z,53.55
2018-09-26T19:08:02.163Z,53.55
2018-09-26T19:10:29.798Z,54.49
2018-09-26T19:12:57.394Z,54.05
2018-09-26T19:15:24.903Z,54.63
2018-09-26T19:17:52.346Z,55.36
2018-09-26T19:20:19.815Z,55.34
2018-09-26T19:22:47.292Z,55.68
2018-09-26T19:25:14.866Z,56.06
2018-09-26T19:27:42.482Z,56.61
2018-09-26T19:30:10.151Z,56.37
2018-09-26T19:32:37.617Z,56.46
2018-09-26T19:35:05.175Z,57.03
2018-09-26T19:37:32.721Z,56.84
2018-09-26T19:40:00.241Z,57.05
2018-09-26T19:42:27.675Z,57.48
2018-09-26T19:44:55.151Z,57.57
2018-09-26T19:47:22.699Z,57.54
2018-09-26T19:49:50.128Z,57.93
2018-09-26T19:52:17.678Z,58.11
2018-09-26T19:54:45.116Z,58.79
2018-09-26T19:57:13.198Z,58.63
2018-09-26T19:59:40.872Z,59.60
2018-09-26T20:02:08.607Z,60.18
2018-09-26T20:04:36.354Z,59.72
2018-09-26T20:07:03.855Z,59.38
2018-09-26T20:09:31.503Z,59.61
2018-09-26T20:11:58.955Z,60.26
2018-09-26T20:14:26.443Z,60.38
2018-09-26T20:16:54.016Z,60.63
2018-09-26T20:19:21.437Z,60.65
2018-09-26T20:21:49.080Z,61.41
2018-09-26T20:24:16.506Z,61.83
2018-09-26T20:26:44.058Z,62.22
2018-09-26T20:29:11.492Z,62.46
2018-09-26T20:31:38.927Z,62.58
2018-09-26T20:34:06.436Z,62.92
2018-09-26T20:36:33.896Z,63.33
2018-09-26T20:39:01.398Z,63.32
2018-09-26T20:41:28.884Z,63.61
2018-09-26T20:43:56.395Z,63.64
2018-09-26T20:46:23.862Z,63.82
2018-09-26T20:48:51.674Z,64.01
2018-09-26T20:51:19.978Z,64.41
2018-09-26T20:53:47.426Z,64.82
2018-09-26T20:56:14.866Z,64.97
2018-09-26T20:58:42.298Z,65.31
2018-09-26T21:01:09.738Z,65.38
2018-09-26T21:03:37.146Z,65.46
2018-09-26T21:06:04.630Z,65.58
2018-09-26T21:08:32.040Z,65.73
2018-09-26T21:10:59.790Z,65.74
2018-09-26T21:13:28.047Z,66.17
2018-09-26T21:15:55.885Z,66.34
2018-09-26T21:18:23.270Z,67.15
2018-09-26T21:20:50.831Z,67.27
2018-09-26T21:23:18.276Z,67.63
2018-09-26T21:25:45.704Z,68.18
2018-09-26T21:28:13.322Z,68.61
2018-09-26T21:30:40.865Z,68.96
2018-09-26T21:33:08.559Z,68.88
2018-09-26T21:35:36.113Z,69.49
2018-09-26T21:38:03.545Z,70.14
2018-09-26T21:40:31.120Z,70.70
2018-09-26T21:42:58.673Z,70.53
2018-09-26T21:45:26.194Z,70.66
2018-09-26T21:47:53.707Z,70.75
2018-09-26T21:50:21.177Z,70.86
2018-09-26T21:52:48.759Z,70.37
2018-09-26T21:55:16.326Z,70.02
2018-09-26T21:57:43.742Z,71.01
2018-09-26T22:00:11.224Z,70.98
2018-09-26T22:02:38.678Z,70.77
2018-09-26T22:05:06.327Z,70.72
2018-09-26T22:07:33.936Z,71.62
2018-09-26T22:10:01.398Z,72.06
2018-09-26T22:12:28.870Z,72.11
2018-09-26T22:14:56.400Z,72.08
2018-09-26T22:17:23.805Z,72.13
2018-09-26T22:19:51.393Z,72.20
2018-09-26T22:22:19.001Z,71.92
2018-09-26T22:24:46.421Z,72.67
2018-09-26T22:27:13.892Z,72.69
2018-09-26T22:29:41.362Z,72.40
2018-09-26T22:32:08.788Z,72.40
2018-09-26T22:34:36.206Z,71.97
2018-09-26T22:37:03.703Z,71.79
2018-09-26T22:39:31.233Z,71.37
2018-09-26T22:41:58.617Z,70.29
2018-09-26T22:44:26.082Z,69.96
2018-09-26T22:46:53.487Z,69.84
2018-09-26T22:49:20.945Z,69.92
2018-09-26T22:51:48.581Z,70.01
2018-09-26T22:54:16.035Z,70.06
2018-09-26T22:56:43.461Z,70.19
2018-09-26T22:59:11.367Z,70.47
2018-09-26T23:01:38.797Z,70.85
2018-09-26T23:04:06.539Z,71.31
2018-09-26T23:06:33.998Z,70.98
2018-09-26T23:09:01.424Z,70.90
2018-09-26T23:11:28.987Z,71.57
2018-09-26T23:13:56.423Z,71.45
2018-09-26T23:16:23.857Z,71.41
2018-09-26T23:18:51.371Z,71.64
2018-09-26T23:21:18.785Z,72.21
2018-09-26T23:23:46.181Z,72.05
2018-09-26T23:26:13.630Z,71.96
2018-09-26T23:28:41.127Z,72.04
2018-09-26T23:31:08.577Z,72.09
2018-09-26T23:33:36.063Z,72.18
2018-09-26T23:36:03.549Z,72.72
2018-09-26T23:38:30.963Z,73.04
2018-09-26T23:40:58.500Z,73.44
2018-09-26T23:43:26.061Z,73.80
2018-09-26T23:45:53.593Z,73.91
2018-09-26T23:48:21.091Z,74.37
2018-09-26T23:50:48.516Z,74.43
2018-09-26T23:53:15.961Z,74.40
2018-09-26T23:55:43.377Z,75.09
2018-09-26T23:58:10.887Z,75.11
